Chapman, Maine
Current Conditions -  °F | °C
As of 4:55 AM on Saturday 25 Oct 2014 (Local Time) from KPQI Reporting Station
Overcast Overcast  
Wind Chill: 36°   Ceiling: 4300
Heat Index: 41°   Visibility: 10mi
Dew Point: 34°   Wind: 8mph
Humidity: 76%   Direction: 320°NW
Pressure: 29.62"   Gusts: NA
Location:  46.5489°N, 68.172°W
Report Text: KPQI 250855Z AUTO 32007KT 10SM OVC043 05/01 A2962 RMK AO1 57007
Loading
Personal Weather Stations






























Interactive Weather Map
Tropical Storm Tracking
New forecast layout! Learn more

10-Day Weather Forecast

Advertisements
Track Severe Weather on mobile